createdAt,value
2018-12-15T00:01:41.551Z,18.32
2018-12-15T00:04:11.022Z,17.40
2018-12-15T00:06:57.379Z,17.65
2018-12-15T00:09:24.884Z,19.07
2018-12-15T00:11:52.520Z,20.30
2018-12-15T00:14:20.019Z,21.15
2018-12-15T00:16:47.521Z,21.65
2018-12-15T00:19:15.027Z,19.95
2018-12-15T00:21:42.526Z,18.55
2018-12-15T00:24:10.128Z,20.57
2018-12-15T00:26:37.589Z,19.98
2018-12-15T00:29:05.053Z,19.10
2018-12-15T00:31:32.443Z,21.20
2018-12-15T00:33:59.995Z,19.80
2018-12-15T00:36:27.591Z,18.37
2018-12-15T00:38:55.085Z,20.05
2018-12-15T00:41:23.681Z,20.88
2018-12-15T00:43:51.276Z,20.25
2018-12-15T00:46:18.719Z,21.02
2018-12-15T00:48:46.223Z,19.62
2018-12-15T00:51:13.683Z,19.65
2018-12-15T00:53:41.195Z,21.30
2018-12-15T00:56:08.677Z,21.07
2018-12-15T00:58:36.157Z,20.17
2018-12-15T01:01:03.708Z,19.77
2018-12-15T01:03:32.151Z,20.95
2018-12-15T01:05:59.664Z,18.82
2018-12-15T01:08:27.188Z,20.02
2018-12-15T01:10:54.681Z,18.67
2018-12-15T01:13:22.140Z,18.37
2018-12-15T01:15:49.577Z,18.60
2018-12-15T01:18:17.048Z,19.30
2018-12-15T01:20:44.765Z,21.10
2018-12-15T01:23:12.280Z,19.60
2018-12-15T01:25:39.940Z,18.90
2018-12-15T01:28:07.583Z,20.27
2018-12-15T01:30:35.046Z,19.75
2018-12-15T01:33:02.501Z,19.87
2018-12-15T01:35:30.053Z,18.20
2018-12-15T01:37:57.533Z,18.52
2018-12-15T01:40:25.056Z,20.02
2018-12-15T01:42:52.574Z,19.60
2018-12-15T01:45:21.643Z,18.60
2018-12-15T01:47:49.199Z,17.75
2018-12-15T01:50:16.648Z,18.67
2018-12-15T01:52:44.181Z,19.27
2018-12-15T01:55:11.699Z,18.62
2018-12-15T01:57:39.335Z,17.75
2018-12-15T02:00:07.685Z,19.37
2018-12-15T02:02:37.301Z,18.85
2018-12-15T02:05:05.015Z,19.77
2018-12-15T02:07:32.594Z,18.65
2018-12-15T02:10:00.100Z,18.80
2018-12-15T02:12:27.598Z,19.40
2018-12-15T02:14:55.176Z,19.00
2018-12-15T02:17:22.736Z,19.12
2018-12-15T02:19:51.114Z,18.42
2018-12-15T02:22:18.708Z,19.32
2018-12-15T02:24:46.322Z,19.20
2018-12-15T02:27:13.852Z,20.15
2018-12-15T02:29:41.356Z,19.25
2018-12-15T02:32:08.846Z,19.35
2018-12-15T02:34:36.307Z,17.85
2018-12-15T02:37:03.929Z,20.62
2018-12-15T02:39:31.481Z,17.15
2018-12-15T02:41:58.984Z,19.67
2018-12-15T02:44:26.431Z,18.80
2018-12-15T02:46:53.968Z,20.50
2018-12-15T02:49:21.370Z,19.87
2018-12-15T02:51:48.925Z,19.98
2018-12-15T02:54:16.776Z,19.77
2018-12-15T02:56:44.306Z,19.02
2018-12-15T02:59:11.891Z,19.70
2018-12-15T03:01:39.471Z,19.70
2018-12-15T03:04:09.926Z,19.32
2018-12-15T03:06:37.512Z,18.73
2018-12-15T03:09:06.237Z,19.12
2018-12-15T03:11:35.735Z,19.37
2018-12-15T03:14:03.346Z,18.25
2018-12-15T03:16:30.824Z,19.12
2018-12-15T03:19:08.391Z,18.90
2018-12-15T03:21:35.782Z,18.52
2018-12-15T03:24:03.230Z,19.35
2018-12-15T03:26:30.723Z,18.50
2018-12-15T03:28:58.186Z,19.85
2018-12-15T03:31:25.571Z,21.07
2018-12-15T03:33:52.985Z,19.10
2018-12-15T03:36:20.511Z,19.02
2018-12-15T03:38:48.052Z,18.55
2018-12-15T03:41:15.516Z,19.82
2018-12-15T03:43:43.012Z,19.55
2018-12-15T03:46:10.474Z,19.25
2018-12-15T03:48:37.930Z,17.55
2018-12-15T03:51:05.414Z,17.82
2018-12-15T03:53:32.882Z,19.30
2018-12-15T03:56:00.648Z,19.02
2018-12-15T03:58:28.111Z,18.87
2018-12-15T04:00:55.700Z,18.42
2018-12-15T04:03:23.155Z,20.00
2018-12-15T04:05:50.680Z,20.10
2018-12-15T04:08:18.131Z,17.60
2018-12-15T04:10:45.587Z,17.55
2018-12-15T04:13:12.978Z,18.30
2018-12-15T04:15:40.672Z,18.57
2018-12-15T04:18:08.171Z,18.70
2018-12-15T04:20:35.586Z,19.15
2018-12-15T04:23:03.320Z,17.57
2018-12-15T04:25:31.001Z,19.75
2018-12-15T04:27:58.458Z,17.95
2018-12-15T04:30:26.027Z,17.67
2018-12-15T04:32:53.499Z,18.42
2018-12-15T04:35:20.999Z,18.02
2018-12-15T04:37:48.466Z,19.40
2018-12-15T04:40:16.043Z,19.62
2018-12-15T04:42:43.627Z,19.27
2018-12-15T04:45:11.108Z,19.25
2018-12-15T04:47:38.660Z,20.48
2018-12-15T04:50:06.468Z,19.85
2018-12-15T04:52:34.049Z,19.82
2018-12-15T04:55:01.596Z,20.10
2018-12-15T04:57:29.057Z,19.12
2018-12-15T04:59:56.506Z,18.23
2018-12-15T05:02:23.951Z,19.70
2018-12-15T05:04:51.340Z,20.20
2018-12-15T05:07:18.883Z,21.65
2018-12-15T05:09:46.440Z,19.90
2018-12-15T05:12:13.814Z,20.45
2018-12-15T05:14:41.223Z,18.67
2018-12-15T05:17:15.642Z,18.57
2018-12-15T05:19:43.089Z,21.00
2018-12-15T05:22:10.861Z,19.48
2018-12-15T05:24:38.450Z,19.52
2018-12-15T05:27:07.932Z,19.52
2018-12-15T05:29:35.396Z,19.12
2018-12-15T05:32:03.121Z,18.27
2018-12-15T05:34:30.579Z,18.95
2018-12-15T05:36:58.164Z,20.32
2018-12-15T05:39:25.646Z,19.92
2018-12-15T05:41:53.197Z,19.05
2018-12-15T05:44:20.756Z,19.65
2018-12-15T05:46:49.099Z,18.85
2018-12-15T05:49:16.901Z,19.35
2018-12-15T05:51:44.464Z,19.07
2018-12-15T05:54:12.008Z,19.52
2018-12-15T05:56:39.475Z,17.20
2018-12-15T05:59:07.089Z,18.87
2018-12-15T06:01:34.620Z,19.55
2018-12-15T06:04:02.114Z,21.05
2018-12-15T06:06:29.631Z,20.32
2018-12-15T06:08:57.058Z,18.98
2018-12-15T06:11:24.572Z,18.57
2018-12-15T06:13:52.049Z,20.02
2018-12-15T06:16:19.502Z,19.23
2018-12-15T06:18:47.031Z,20.77
2018-12-15T06:21:14.696Z,21.02
2018-12-15T06:23:42.173Z,20.37
2018-12-15T06:26:09.609Z,19.17
2018-12-15T06:28:37.095Z,21.77
2018-12-15T06:31:04.584Z,20.30
2018-12-15T06:33:32.125Z,19.17
2018-12-15T06:35:59.564Z,20.15
2018-12-15T06:38:27.151Z,20.32
2018-12-15T06:40:54.669Z,19.95
2018-12-15T06:43:22.434Z,19.15
2018-12-15T06:45:50.286Z,20.40
2018-12-15T06:48:18.764Z,19.82
2018-12-15T06:50:46.231Z,20.50
2018-12-15T06:53:13.696Z,19.52
2018-12-15T06:55:41.176Z,18.50
2018-12-15T06:58:08.742Z,18.25
2018-12-15T07:00:36.359Z,17.67
2018-12-15T07:03:03.854Z,19.60
2018-12-15T07:05:31.414Z,18.75
2018-12-15T07:07:58.982Z,19.30
2018-12-15T07:10:26.463Z,19.90
2018-12-15T07:12:53.905Z,21.90
2018-12-15T07:15:21.484Z,22.42
2018-12-15T07:17:49.777Z,19.82
2018-12-15T07:20:17.197Z,18.55
2018-12-15T07:22:44.667Z,21.25
2018-12-15T07:25:12.083Z,21.45
2018-12-15T07:27:40.061Z,19.12
2018-12-15T07:30:08.114Z,19.98
2018-12-15T07:32:35.664Z,19.70
2018-12-15T07:35:03.308Z,19.80
2018-12-15T07:37:30.742Z,19.35
2018-12-15T07:39:58.238Z,19.52
2018-12-15T07:42:25.807Z,19.95
2018-12-15T07:44:54.300Z,20.40
2018-12-15T07:47:21.700Z,21.10
2018-12-15T07:49:49.175Z,20.85
2018-12-15T07:52:16.730Z,20.10
2018-12-15T07:54:44.203Z,19.35
2018-12-15T07:57:11.653Z,19.17
2018-12-15T07:59:39.312Z,19.67
2018-12-15T08:02:06.860Z,20.48
2018-12-15T08:04:34.503Z,19.50
2018-12-15T08:07:02.466Z,19.70
2018-12-15T08:09:30.036Z,19.57
2018-12-15T08:12:03.542Z,20.17
2018-12-15T08:14:31.141Z,20.05
2018-12-15T08:16:58.728Z,20.15
2018-12-15T08:19:26.318Z,20.70
2018-12-15T08:21:53.777Z,19.60
2018-12-15T08:24:21.217Z,29.63
2018-12-15T08:26:48.613Z,36.08
2018-12-15T08:29:16.091Z,25.80
2018-12-15T08:31:43.557Z,23.50
2018-12-15T08:34:11.264Z,21.00
2018-12-15T08:36:38.790Z,21.15
2018-12-15T08:39:07.048Z,20.62
2018-12-15T08:41:36.820Z,18.42
2018-12-15T08:44:04.488Z,19.25
2018-12-15T08:46:32.019Z,19.90
2018-12-15T08:49:04.609Z,19.80
2018-12-15T08:51:29.606Z,19.10
2018-12-15T08:53:57.125Z,18.82
2018-12-15T08:56:24.600Z,17.27
2018-12-15T08:58:52.036Z,17.65
2018-12-15T09:01:19.680Z,19.17
2018-12-15T09:03:47.349Z,18.30
2018-12-15T09:06:14.895Z,19.52
2018-12-15T09:08:42.561Z,19.62
2018-12-15T09:11:10.082Z,18.17
2018-12-15T09:13:37.674Z,20.82
2018-12-15T09:16:05.476Z,19.27
2018-12-15T09:18:33.093Z,19.95
2018-12-15T09:21:00.781Z,20.10
2018-12-15T09:23:28.377Z,20.62
2018-12-15T09:25:55.801Z,20.23
2018-12-15T09:28:23.337Z,20.88
2018-12-15T09:30:50.994Z,20.32
2018-12-15T09:33:18.494Z,21.12
2018-12-15T09:35:46.007Z,19.12
2018-12-15T09:38:13.619Z,19.95
2018-12-15T09:40:41.192Z,21.77
2018-12-15T09:43:08.617Z,19.73
2018-12-15T09:45:36.274Z,18.95
2018-12-15T09:48:03.927Z,20.30
2018-12-15T09:50:32.071Z,20.50
2018-12-15T09:52:59.725Z,21.05
2018-12-15T09:55:27.289Z,19.62
2018-12-15T09:57:54.838Z,19.12
2018-12-15T10:00:22.560Z,19.62
2018-12-15T10:02:50.668Z,20.37
2018-12-15T10:05:18.264Z,21.42
2018-12-15T10:07:45.862Z,20.72
2018-12-15T10:10:13.543Z,22.90
2018-12-15T10:12:41.026Z,21.48
2018-12-15T10:15:08.590Z,20.97
2018-12-15T10:17:36.266Z,17.70
2018-12-15T10:20:04.575Z,19.60
2018-12-15T10:22:32.196Z,18.82
2018-12-15T10:24:59.844Z,20.12
2018-12-15T10:27:27.673Z,20.77
2018-12-15T10:30:00.832Z,20.10
2018-12-15T10:33:04.417Z,20.57
2018-12-15T10:35:31.997Z,17.98
2018-12-15T10:37:59.626Z,19.98
2018-12-15T10:40:27.294Z,18.17
2018-12-15T10:42:54.959Z,18.57
2018-12-15T10:45:22.639Z,19.85
2018-12-15T10:47:50.991Z,18.80
2018-12-15T10:50:18.741Z,19.85
2018-12-15T10:52:46.384Z,18.20
2018-12-15T10:55:14.077Z,16.30
2018-12-15T10:57:43.527Z,17.12
2018-12-15T11:00:17.587Z,18.42
2018-12-15T11:02:47.081Z,18.40
2018-12-15T11:05:16.612Z,17.10
2018-12-15T11:07:44.130Z,18.32
2018-12-15T11:10:11.811Z,17.92
2018-12-15T11:12:40.552Z,17.17
2018-12-15T11:15:08.575Z,16.60
2018-12-15T11:17:36.187Z,17.50
2018-12-15T11:20:04.705Z,18.02
2018-12-15T11:22:32.226Z,17.55
2018-12-15T11:24:59.757Z,17.80
2018-12-15T11:27:27.210Z,18.67
2018-12-15T11:29:54.836Z,19.12
2018-12-15T11:32:22.431Z,19.10
2018-12-15T11:34:50.024Z,17.30
2018-12-15T11:37:17.681Z,19.67
2018-12-15T11:39:45.488Z,18.48
2018-12-15T11:42:13.743Z,19.07
2018-12-15T11:44:41.636Z,18.00
2018-12-15T11:47:09.148Z,19.20
2018-12-15T11:49:36.798Z,18.77
2018-12-15T11:52:04.432Z,16.42
2018-12-15T11:54:32.087Z,17.00
2018-12-15T11:56:59.697Z,17.10
2018-12-15T11:59:27.186Z,18.12
2018-12-15T12:01:54.726Z,18.65
2018-12-15T12:04:22.290Z,16.90
2018-12-15T12:06:49.932Z,17.87
2018-12-15T12:09:17.557Z,18.90
2018-12-15T12:11:45.260Z,17.20
2018-12-15T12:14:12.990Z,19.05
2018-12-15T12:16:40.666Z,16.57
2018-12-15T12:19:09.308Z,15.53
2018-12-15T12:21:36.755Z,17.02
2018-12-15T12:24:04.346Z,19.17
2018-12-15T12:26:33.814Z,19.50
2018-12-15T12:29:01.328Z,17.23
2018-12-15T12:31:28.903Z,19.12
2018-12-15T12:33:56.451Z,19.37
2018-12-15T12:36:24.057Z,18.82
2018-12-15T12:38:52.276Z,17.73
2018-12-15T12:41:20.038Z,17.77
2018-12-15T12:43:47.624Z,18.52
2018-12-15T12:46:15.206Z,16.42
2018-12-15T12:48:42.908Z,18.23
2018-12-15T12:51:12.334Z,17.32
2018-12-15T12:53:40.219Z,21.10
2018-12-15T12:56:07.833Z,18.77
2018-12-15T12:58:35.481Z,18.87
2018-12-15T13:01:03.051Z,20.08
2018-12-15T13:03:32.314Z,18.65
2018-12-15T13:05:59.777Z,18.20
2018-12-15T13:08:27.408Z,18.67
2018-12-15T13:10:54.928Z,18.95
2018-12-15T13:13:23.581Z,16.82
2018-12-15T13:15:51.059Z,17.77
2018-12-15T13:18:18.572Z,19.40
2018-12-15T13:20:46.061Z,18.02
2018-12-15T13:23:13.506Z,19.15
2018-12-15T13:25:42.090Z,18.10
2018-12-15T13:28:09.574Z,17.32
2018-12-15T13:30:37.118Z,18.30
2018-12-15T13:33:14.737Z,18.55
2018-12-15T13:35:42.319Z,18.23
2018-12-15T13:38:09.954Z,19.30
2018-12-15T13:40:37.481Z,20.25
2018-12-15T13:43:05.218Z,18.57
2018-12-15T13:45:32.647Z,19.75
2018-12-15T13:48:00.135Z,19.30
2018-12-15T13:50:27.658Z,19.10
2018-12-15T13:52:55.213Z,18.27
2018-12-15T13:55:22.713Z,18.80
2018-12-15T13:57:50.219Z,18.50
2018-12-15T14:00:17.795Z,17.70
2018-12-15T14:02:45.294Z,18.27
2018-12-15T14:05:12.953Z,19.10
2018-12-15T14:07:41.663Z,21.70
2018-12-15T14:10:09.346Z,19.60
2018-12-15T14:12:37.135Z,18.48
2018-12-15T14:15:04.892Z,21.02
2018-12-15T14:17:32.518Z,18.15
2018-12-15T14:19:59.930Z,20.45
2018-12-15T14:22:27.467Z,18.20
2018-12-15T14:24:55.057Z,18.52
2018-12-15T14:27:22.779Z,21.42
2018-12-15T14:29:50.268Z,21.42
2018-12-15T14:32:17.908Z,19.42
2018-12-15T14:34:45.458Z,21.10
2018-12-15T14:37:13.001Z,19.92
2018-12-15T14:39:40.569Z,21.97
2018-12-15T14:42:08.122Z,21.10
2018-12-15T14:44:35.659Z,23.05
2018-12-15T14:47:03.310Z,21.12
2018-12-15T14:49:30.797Z,23.62
2018-12-15T14:51:58.279Z,21.50
2018-12-15T14:54:25.812Z,20.15
2018-12-15T14:56:53.368Z,20.95
2018-12-15T14:59:20.978Z,21.73
2018-12-15T15:01:48.489Z,22.50
2018-12-15T15:04:16.060Z,23.70
2018-12-15T15:06:43.695Z,21.25
2018-12-15T15:09:11.118Z,21.15
2018-12-15T15:11:38.661Z,21.37
2018-12-15T15:14:06.194Z,20.12
2018-12-15T15:16:33.720Z,20.57
2018-12-15T15:19:01.437Z,22.58
2018-12-15T15:21:29.012Z,21.93
2018-12-15T15:23:56.514Z,23.12
2018-12-15T15:26:24.039Z,20.40
2018-12-15T15:28:51.575Z,24.67
2018-12-15T15:31:19.063Z,26.80
2018-12-15T15:33:46.626Z,28.35
2018-12-15T15:36:14.121Z,35.52
2018-12-15T15:38:41.930Z,37.78
2018-12-15T15:41:09.405Z,36.70
2018-12-15T15:43:36.902Z,35.45
2018-12-15T15:46:04.437Z,36.60
2018-12-15T15:48:32.030Z,28.30
2018-12-15T15:50:59.598Z,30.08
2018-12-15T15:53:27.198Z,28.20
2018-12-15T15:55:56.026Z,27.35
2018-12-15T15:58:23.500Z,24.23
2018-12-15T16:00:50.979Z,21.15
2018-12-15T16:03:18.803Z,21.10
2018-12-15T16:05:46.280Z,20.60
2018-12-15T16:08:13.842Z,20.05
2018-12-15T16:10:41.332Z,20.97
2018-12-15T16:13:08.804Z,21.70
2018-12-15T16:15:36.313Z,33.75
2018-12-15T16:18:06.026Z,36.20
2018-12-15T16:20:33.533Z,34.70
2018-12-15T16:23:01.159Z,31.55
2018-12-15T16:25:28.709Z,30.17
2018-12-15T16:27:56.352Z,27.50
2018-12-15T16:30:23.851Z,28.95
2018-12-15T16:32:51.470Z,25.40
2018-12-15T16:35:19.826Z,28.75
2018-12-15T16:37:47.410Z,26.55
2018-12-15T16:40:14.936Z,25.32
2018-12-15T16:42:42.650Z,27.82
2018-12-15T16:45:11.026Z,31.80
2018-12-15T16:47:38.474Z,31.15
2018-12-15T16:50:09.538Z,65.10
2018-12-15T16:52:37.546Z,40.35
2018-12-15T16:55:05.675Z,31.20
2018-12-15T16:57:33.124Z,27.05
2018-12-15T17:00:00.569Z,23.32
2018-12-15T17:02:28.001Z,24.20
2018-12-15T17:04:56.615Z,21.50
2018-12-15T17:07:24.247Z,22.87
2018-12-15T17:09:51.962Z,26.68
2018-12-15T17:12:19.504Z,26.82
2018-12-15T17:14:46.930Z,27.00
2018-12-15T17:17:14.783Z,22.85
2018-12-15T17:19:42.426Z,23.05
2018-12-15T17:22:09.854Z,22.67
2018-12-15T17:24:37.283Z,22.62
2018-12-15T17:27:04.815Z,24.65
2018-12-15T17:29:33.359Z,30.37
2018-12-15T17:32:00.972Z,32.15
2018-12-15T17:34:28.777Z,30.60
2018-12-15T17:36:56.431Z,29.90
2018-12-15T17:39:24.250Z,29.05
2018-12-15T17:41:51.911Z,25.00
2018-12-15T17:44:19.662Z,23.47
2018-12-15T17:46:51.055Z,24.52
2018-12-15T17:49:20.614Z,21.77
2018-12-15T17:51:48.258Z,22.93
2018-12-15T17:54:16.039Z,23.27
2018-12-15T17:56:43.720Z,22.37
2018-12-15T17:59:11.236Z,22.65
2018-12-15T18:01:38.852Z,22.00
2018-12-15T18:04:07.411Z,23.32
2018-12-15T18:06:34.919Z,25.30
2018-12-15T18:09:04.470Z,26.33
2018-12-15T18:11:34.012Z,24.82
2018-12-15T18:14:01.493Z,23.45
2018-12-15T18:16:29.204Z,22.80
2018-12-15T18:18:56.911Z,25.82
2018-12-15T18:21:24.335Z,22.40
2018-12-15T18:23:51.993Z,21.68
2018-12-15T18:26:19.462Z,21.15
2018-12-15T18:28:47.426Z,24.67
2018-12-15T18:31:14.896Z,23.70
2018-12-15T18:33:42.483Z,24.72
2018-12-15T18:36:10.010Z,21.68
2018-12-15T18:38:37.628Z,23.07
2018-12-15T18:41:05.335Z,22.75
2018-12-15T18:43:33.104Z,21.05
2018-12-15T18:46:00.592Z,23.10
2018-12-15T18:48:28.144Z,23.73
2018-12-15T18:50:55.804Z,23.30
2018-12-15T18:53:23.348Z,23.62
2018-12-15T18:55:51.626Z,23.42
2018-12-15T18:58:19.383Z,22.98
2018-12-15T19:00:47.020Z,23.70
2018-12-15T19:03:14.563Z,23.20
2018-12-15T19:05:42.183Z,22.82
2018-12-15T19:08:09.690Z,22.65
2018-12-15T19:10:37.365Z,22.80
2018-12-15T19:13:04.871Z,24.20
2018-12-15T19:15:32.951Z,25.05
2018-12-15T19:18:00.435Z,23.47
2018-12-15T19:20:27.817Z,22.73
2018-12-15T19:22:55.452Z,22.58
2018-12-15T19:25:23.128Z,23.42
2018-12-15T19:27:50.675Z,23.70
2018-12-15T19:30:18.239Z,26.23
2018-12-15T19:32:45.702Z,24.20
2018-12-15T19:35:13.314Z,25.48
2018-12-15T19:37:40.751Z,24.23
2018-12-15T19:40:08.600Z,24.65
2018-12-15T19:42:36.229Z,25.43
2018-12-15T19:45:05.207Z,26.45
2018-12-15T19:47:32.872Z,28.85
2018-12-15T19:50:00.329Z,29.10
2018-12-15T19:52:27.877Z,30.75
2018-12-15T19:54:55.384Z,29.92
2018-12-15T19:57:23.004Z,28.73
2018-12-15T19:59:50.365Z,28.55
2018-12-15T20:02:17.877Z,34.95
2018-12-15T20:04:45.616Z,36.17
2018-12-15T20:07:13.122Z,31.07
2018-12-15T20:09:40.765Z,27.95
2018-12-15T20:12:08.401Z,25.50
2018-12-15T20:14:36.204Z,28.00
2018-12-15T20:17:03.757Z,27.20
2018-12-15T20:19:31.405Z,29.87
2018-12-15T20:22:00.061Z,32.88
2018-12-15T20:24:27.479Z,31.82
2018-12-15T20:26:54.974Z,27.45
2018-12-15T20:29:22.526Z,22.73
2018-12-15T20:31:50.016Z,22.73
2018-12-15T20:34:17.458Z,20.92
2018-12-15T20:36:44.957Z,24.18
2018-12-15T20:39:12.391Z,22.80
2018-12-15T20:41:39.864Z,23.67
2018-12-15T20:44:07.518Z,25.32
2018-12-15T20:46:35.051Z,25.77
2018-12-15T20:49:03.062Z,25.88
2018-12-15T20:51:30.556Z,25.12
2018-12-15T20:53:58.060Z,25.43
2018-12-15T20:56:26.300Z,27.80
2018-12-15T20:58:53.804Z,25.12
2018-12-15T21:01:21.305Z,25.52
2018-12-15T21:03:48.856Z,23.15
2018-12-15T21:06:16.435Z,23.40
2018-12-15T21:08:44.915Z,23.12
2018-12-15T21:11:12.578Z,25.00
2018-12-15T21:13:40.133Z,22.77
2018-12-15T21:16:07.573Z,23.73
2018-12-15T21:18:35.438Z,22.37
2018-12-15T21:21:03.129Z,23.50
2018-12-15T21:23:30.659Z,23.07
2018-12-15T21:25:58.410Z,22.82
2018-12-15T21:28:26.459Z,26.25
2018-12-15T21:30:53.934Z,28.50
2018-12-15T21:33:21.345Z,29.37
2018-12-15T21:35:48.801Z,27.35
2018-12-15T21:38:16.197Z,27.82
2018-12-15T21:40:43.623Z,27.02
2018-12-15T21:43:11.218Z,25.12
2018-12-15T21:45:38.617Z,24.23
2018-12-15T21:48:06.300Z,21.40
2018-12-15T21:50:33.920Z,23.50
2018-12-15T21:53:01.569Z,22.60
2018-12-15T21:55:29.198Z,23.05
2018-12-15T21:57:56.982Z,23.57
2018-12-15T22:00:24.624Z,22.90
2018-12-15T22:02:52.219Z,24.98
2018-12-15T22:05:19.747Z,22.75
2018-12-15T22:07:47.253Z,23.52
2018-12-15T22:10:14.789Z,25.55
2018-12-15T22:12:42.352Z,25.15
2018-12-15T22:15:09.902Z,26.27
2018-12-15T22:17:37.404Z,25.30
2018-12-15T22:20:07.374Z,27.30
2018-12-15T22:22:35.067Z,27.65
2018-12-15T22:25:02.730Z,24.02
2018-12-15T22:27:30.266Z,24.95
2018-12-15T22:29:57.731Z,24.32
2018-12-15T22:32:25.324Z,25.17
2018-12-15T22:34:52.829Z,26.65
2018-12-15T22:37:20.294Z,25.48
2018-12-15T22:39:47.893Z,27.73
2018-12-15T22:42:15.737Z,26.17
2018-12-15T22:44:43.328Z,26.55
2018-12-15T22:47:10.760Z,23.57
2018-12-15T22:49:38.242Z,23.30
2018-12-15T22:52:09.761Z,22.00
2018-12-15T22:54:35.287Z,22.55
2018-12-15T22:57:02.768Z,19.95
2018-12-15T22:59:30.206Z,20.10
2018-12-15T23:01:58.535Z,19.75
2018-12-15T23:04:26.159Z,19.95
2018-12-15T23:06:53.709Z,18.73
2018-12-15T23:09:21.215Z,21.57
2018-12-15T23:11:48.722Z,20.62
2018-12-15T23:14:16.284Z,19.20
2018-12-15T23:16:44.948Z,20.75
2018-12-15T23:19:12.423Z,20.45
2018-12-15T23:21:39.991Z,20.15
2018-12-15T23:24:07.537Z,22.00
2018-12-15T23:26:35.046Z,20.65
2018-12-15T23:29:02.669Z,20.75
2018-12-15T23:31:30.154Z,21.90
2018-12-15T23:33:57.685Z,19.67
2018-12-15T23:36:25.205Z,23.73
2018-12-15T23:38:52.698Z,20.80
2018-12-15T23:41:20.183Z,21.42
2018-12-15T23:43:47.679Z,21.65
2018-12-15T23:46:15.205Z,22.07
2018-12-15T23:48:42.585Z,20.97
2018-12-15T23:51:10.150Z,20.85
2018-12-15T23:53:37.751Z,19.73
2018-12-15T23:56:05.282Z,20.80
2018-12-15T23:58:32.923Z,21.52
